sensor_id;sensor_type;location;lat;lon;timestamp;pressure;altitude;pressure_sealevel;temperature;humidity
74594;BME280;63097;51.872;4.460;2023-08-06T00:00:17;100527.09;;;15.03;100.00
74594;BME280;63097;51.872;4.460;2023-08-06T00:02:42;100532.41;;;15.04;100.00
74594;BME280;63097;51.872;4.460;2023-08-06T00:05:08;100524.59;;;15.01;100.00
74594;BME280;63097;51.872;4.460;2023-08-06T00:07:33;100538.00;;;15.04;100.00
74594;BME280;63097;51.872;4.460;2023-08-06T00:09:58;100530.16;;;15.06;100.00
74594;BME280;63097;51.872;4.460;2023-08-06T00:12:24;100528.81;;;14.94;100.00
74594;BME280;63097;51.872;4.460;2023-08-06T00:14:53;100537.75;;;15.01;100.00
74594;BME280;63097;51.872;4.460;2023-08-06T00:17:18;100532.69;;;15.03;100.00
74594;BME280;63097;51.872;4.460;2023-08-06T00:19:44;100535.19;;;15.04;100.00
74594;BME280;63097;51.872;4.460;2023-08-06T00:22:09;100531.56;;;15.04;100.00
74594;BME280;63097;51.872;4.460;2023-08-06T00:24:35;100529.00;;;15.07;100.00
74594;BME280;63097;51.872;4.460;2023-08-06T00:27:00;100538.00;;;15.04;100.00
74594;BME280;63097;51.872;4.460;2023-08-06T00:29:26;100533.50;;;15.03;100.00
74594;BME280;63097;51.872;4.460;2023-08-06T00:31:51;100540.22;;;15.07;100.00
74594;BME280;63097;51.872;4.460;2023-08-06T00:34:16;100540.00;;;14.99;100.00
74594;BME280;63097;51.872;4.460;2023-08-06T00:36:42;100540.25;;;15.02;100.00
74594;BME280;63097;51.872;4.460;2023-08-06T00:39:07;100541.66;;;15.00;100.00
74594;BME280;63097;51.872;4.460;2023-08-06T00:41:32;100532.69;;;14.98;100.00
74594;BME280;63097;51.872;4.460;2023-08-06T00:43:58;100541.38;;;15.01;100.00
74594;BME280;63097;51.872;4.460;2023-08-06T00:46:23;100536.91;;;15.00;100.00
74594;BME280;63097;51.872;4.460;2023-08-06T00:48:49;100534.06;;;15.05;100.00
74594;BME280;63097;51.872;4.460;2023-08-06T00:51:15;100540.84;;;14.99;100.00
74594;BME280;63097;51.872;4.460;2023-08-06T00:53:41;100540.00;;;14.99;100.00
74594;BME280;63097;51.872;4.460;2023-08-06T00:56:08;100544.72;;;15.03;100.00
74594;BME280;63097;51.872;4.460;2023-08-06T00:58:35;100545.00;;;15.02;100.00
74594;BME280;63097;51.872;4.460;2023-08-06T01:01:01;100541.09;;;14.98;100.00
74594;BME280;63097;51.872;4.460;2023-08-06T01:03:26;100542.47;;;15.05;100.00
74594;BME280;63097;51.872;4.460;2023-08-06T01:05:51;100539.69;;;15.00;100.00
74594;BME280;63097;51.872;4.460;2023-08-06T01:16:03;100545.00;;;15.02;100.00
74594;BME280;63097;51.872;4.460;2023-08-06T01:18:28;100551.44;;;15.02;100.00
74594;BME280;63097;51.872;4.460;2023-08-06T01:20:54;100540.75;;;15.09;100.00
74594;BME280;63097;51.872;4.460;2023-08-06T01:23:19;100548.06;;;15.05;100.00
74594;BME280;63097;51.872;4.460;2023-08-06T01:25:59;100553.41;;;15.02;100.00
74594;BME280;63097;51.872;4.460;2023-08-06T01:31:21;100550.31;;;15.03;100.00
74594;BME280;63097;51.872;4.460;2023-08-06T01:33:47;100556.75;;;15.04;100.00
74594;BME280;63097;51.872;4.460;2023-08-06T01:36:17;100554.50;;;15.06;100.00
74594;BME280;63097;51.872;4.460;2023-08-06T01:38:44;100552.25;;;15.08;100.00
74594;BME280;63097;51.872;4.460;2023-08-06T01:41:10;100559.25;;;15.05;100.00
74594;BME280;63097;51.872;4.460;2023-08-06T01:43:35;100554.25;;;15.02;100.00
74594;BME280;63097;51.872;4.460;2023-08-06T01:46:00;100553.66;;;15.05;100.00
74594;BME280;63097;51.872;4.460;2023-08-06T01:48:26;100551.75;;;15.01;100.00
74594;BME280;63097;51.872;4.460;2023-08-06T01:50:51;100551.19;;;14.99;100.00
74594;BME280;63097;51.872;4.460;2023-08-06T01:53:16;100561.59;;;14.93;100.00
74594;BME280;63097;51.872;4.460;2023-08-06T01:55:42;100561.81;;;15.02;100.00
74594;BME280;63097;51.872;4.460;2023-08-06T01:58:07;100558.50;;;14.95;100.00
74594;BME280;63097;51.872;4.460;2023-08-06T02:00:32;100568.28;;;14.97;100.00
74594;BME280;63097;51.872;4.460;2023-08-06T02:02:57;100579.78;;;14.96;100.00
74594;BME280;63097;51.872;4.460;2023-08-06T02:05:23;100575.00;;;14.96;100.00
74594;BME280;63097;51.872;4.460;2023-08-06T02:07:48;100577.81;;;14.96;100.00
74594;BME280;63097;51.872;4.460;2023-08-06T02:10:13;100575.00;;;14.96;100.00
74594;BME280;63097;51.872;4.460;2023-08-06T02:12:39;100577.81;;;15.01;100.00
74594;BME280;63097;51.872;4.460;2023-08-06T02:15:05;100581.13;;;15.03;100.00
74594;BME280;63097;51.872;4.460;2023-08-06T02:17:30;100582.25;;;15.02;100.00
74594;BME280;63097;51.872;4.460;2023-08-06T02:19:55;100593.47;;;15.02;100.00
74594;BME280;63097;51.872;4.460;2023-08-06T02:22:21;100590.66;;;15.02;100.00
74594;BME280;63097;51.872;4.460;2023-08-06T02:24:46;100586.72;;;15.03;100.00
74594;BME280;63097;51.872;4.460;2023-08-06T02:27:11;100580.59;;;15.01;100.00
74594;BME280;63097;51.872;4.460;2023-08-06T02:29:37;100585.03;;;15.07;100.00
74594;BME280;63097;51.872;4.460;2023-08-06T02:32:02;100581.97;;;15.04;100.00
74594;BME280;63097;51.872;4.460;2023-08-06T02:34:28;100581.97;;;15.04;100.00
74594;BME280;63097;51.872;4.460;2023-08-06T02:36:53;100584.47;;;15.05;100.00
74594;BME280;63097;51.872;4.460;2023-08-06T02:39:19;100588.97;;;15.06;100.00
74594;BME280;63097;51.872;4.460;2023-08-06T02:41:44;100602.44;;;15.04;100.00
74594;BME280;63097;51.872;4.460;2023-08-06T02:44:09;100585.31;;;15.06;100.00
74594;BME280;63097;51.872;4.460;2023-08-06T02:46:35;100596.81;;;15.04;100.00
74594;BME280;63097;51.872;4.460;2023-08-06T02:49:00;100591.81;;;15.01;100.00
74594;BME280;63097;51.872;4.460;2023-08-06T02:51:25;100592.06;;;15.00;100.00
74594;BME280;63097;51.872;4.460;2023-08-06T02:53:50;100587.88;;;15.02;100.00
74594;BME280;63097;51.872;4.460;2023-08-06T02:56:16;100596.00;;;14.99;100.00
74594;BME280;63097;51.872;4.460;2023-08-06T02:58:41;100595.13;;;15.03;100.00
74594;BME280;63097;51.872;4.460;2023-08-06T03:01:06;100599.06;;;15.02;100.00
74594;BME280;63097;51.872;4.460;2023-08-06T03:03:32;100595.72;;;15.00;100.00
74594;BME280;63097;51.872;4.460;2023-08-06T03:05:58;100598.22;;;15.02;100.00
74594;BME280;63097;51.872;4.460;2023-08-06T03:08:23;100603.53;;;15.03;100.00
74594;BME280;63097;51.872;4.460;2023-08-06T03:10:49;100597.69;;;15.00;100.00
74594;BME280;63097;51.872;4.460;2023-08-06T03:13:19;100603.56;;;14.98;100.00
74594;BME280;63097;51.872;4.460;2023-08-06T03:15:58;100600.22;;;14.96;100.00
74594;BME280;63097;51.872;4.460;2023-08-06T03:18:24;100600.22;;;14.96;100.00
74594;BME280;63097;51.872;4.460;2023-08-06T03:20:50;100595.56;;;14.77;100.00
74594;BME280;63097;51.872;4.460;2023-08-06T03:23:15;100605.03;;;14.86;100.00
74594;BME280;63097;51.872;4.460;2023-08-06T03:25:41;100603.94;;;14.82;100.00
74594;BME280;63097;51.872;4.460;2023-08-06T03:28:06;100602.81;;;14.78;100.00
74594;BME280;63097;51.872;4.460;2023-08-06T03:30:31;100603.13;;;14.81;100.00
74594;BME280;63097;51.872;4.460;2023-08-06T03:32:57;100611.56;;;14.66;100.00
74594;BME280;63097;51.872;4.460;2023-08-06T03:35:22;100609.59;;;14.62;100.00
74594;BME280;63097;51.872;4.460;2023-08-06T03:37:47;100611.59;;;14.61;100.00
74594;BME280;63097;51.872;4.460;2023-08-06T03:40:13;100613.28;;;14.57;100.00
74594;BME280;63097;51.872;4.460;2023-08-06T03:42:38;100615.22;;;14.57;100.00
74594;BME280;63097;51.872;4.460;2023-08-06T03:45:04;100613.00;;;14.49;100.00
74594;BME280;63097;51.872;4.460;2023-08-06T03:47:29;100625.59;;;14.61;100.00
74594;BME280;63097;51.872;4.460;2023-08-06T03:49:54;100628.66;;;14.65;100.00
74594;BME280;63097;51.872;4.460;2023-08-06T03:52:20;100639.28;;;14.63;100.00
74594;BME280;63097;51.872;4.460;2023-08-06T03:54:45;100632.28;;;14.60;100.00
74594;BME280;63097;51.872;4.460;2023-08-06T03:57:10;100630.06;;;14.57;100.00
74594;BME280;63097;51.872;4.460;2023-08-06T03:59:36;100638.47;;;14.47;100.00
74594;BME280;63097;51.872;4.460;2023-08-06T04:02:02;100639.63;;;14.46;100.00
74594;BME280;63097;51.872;4.460;2023-08-06T04:04:27;100636.81;;;14.46;100.00
74594;BME280;63097;51.872;4.460;2023-08-06T04:06:52;100635.16;;;14.35;100.00
74594;BME280;63097;51.872;4.460;2023-08-06T04:09:18;100649.97;;;14.36;100.00
74594;BME280;63097;51.872;4.460;2023-08-06T04:11:43;100648.03;;;14.31;100.00
74594;BME280;63097;51.872;4.460;2023-08-06T04:14:08;100657.81;;;14.29;100.00
74594;BME280;63097;51.872;4.460;2023-08-06T04:16:34;100657.00;;;14.28;100.00
74594;BME280;63097;51.872;4.460;2023-08-06T04:18:59;100661.47;;;14.29;100.00
74594;BME280;63097;51.872;4.460;2023-08-06T04:21:24;100663.41;;;14.19;100.00
74594;BME280;63097;51.872;4.460;2023-08-06T04:23:50;100669.28;;;14.17;100.00
74594;BME280;63097;51.872;4.460;2023-08-06T04:26:15;100667.31;;;14.18;100.00
74594;BME280;63097;51.872;4.460;2023-08-06T04:28:40;100674.31;;;14.10;100.00
74594;BME280;63097;51.872;4.460;2023-08-06T04:31:05;100685.22;;;14.11;100.00
74594;BME280;63097;51.872;4.460;2023-08-06T04:33:31;100687.19;;;14.06;100.00
74594;BME280;63097;51.872;4.460;2023-08-06T04:35:56;100677.09;;;14.05;100.00
74594;BME280;63097;51.872;4.460;2023-08-06T04:38:25;100696.69;;;14.10;100.00
74594;BME280;63097;51.872;4.460;2023-08-06T04:40:50;100698.94;;;14.08;100.00
74594;BME280;63097;51.872;4.460;2023-08-06T04:43:16;100711.78;;;14.14;100.00
74594;BME280;63097;51.872;4.460;2023-08-06T04:45:52;100701.19;;;14.06;100.00
74594;BME280;63097;51.872;4.460;2023-08-06T04:48:18;100716.25;;;14.05;100.00
74594;BME280;63097;51.872;4.460;2023-08-06T04:50:47;100715.97;;;14.06;100.00
74594;BME280;63097;51.872;4.460;2023-08-06T04:53:13;100720.19;;;14.04;100.00
74594;BME280;63097;51.872;4.460;2023-08-06T04:55:39;100732.75;;;13.96;100.00
74594;BME280;63097;51.872;4.460;2023-08-06T04:58:04;100725.78;;;13.99;100.00
74594;BME280;63097;51.872;4.460;2023-08-06T05:00:30;100723.81;;;13.94;100.00
74594;BME280;63097;51.872;4.460;2023-08-06T05:02:55;100726.03;;;13.97;100.00
74594;BME280;63097;51.872;4.460;2023-08-06T05:05:21;100732.75;;;13.96;100.00
74594;BME280;63097;51.872;4.460;2023-08-06T05:07:48;100735.84;;;13.95;100.00
74594;BME280;63097;51.872;4.460;2023-08-06T05:10:14;100736.94;;;13.94;100.00
74594;BME280;63097;51.872;4.460;2023-08-06T05:12:39;100743.66;;;13.93;100.00
74594;BME280;63097;51.872;4.460;2023-08-06T05:15:05;100738.63;;;13.95;100.00
74594;BME280;63097;51.872;4.460;2023-08-06T05:17:30;100746.19;;;13.99;100.00
74594;BME280;63097;51.872;4.460;2023-08-06T05:19:55;100751.81;;;14.04;100.00
74594;BME280;63097;51.872;4.460;2023-08-06T05:22:21;100749.00;;;14.04;100.00
74594;BME280;63097;51.872;4.460;2023-08-06T05:24:46;100751.81;;;14.04;100.00
74594;BME280;63097;51.872;4.460;2023-08-06T05:27:11;100757.69;;;14.08;100.00
74594;BME280;63097;51.872;4.460;2023-08-06T05:29:37;100760.19;;;14.04;100.00
74594;BME280;63097;51.872;4.460;2023-08-06T05:32:02;100759.06;;;14.00;100.00
74594;BME280;63097;51.872;4.460;2023-08-06T05:34:27;100772.78;;;14.07;100.00
74594;BME280;63097;51.872;4.460;2023-08-06T05:36:53;100769.41;;;14.10;100.00
74594;BME280;63097;51.872;4.460;2023-08-06T05:39:18;100771.38;;;14.09;100.00
74594;BME280;63097;51.872;4.460;2023-08-06T05:41:43;100769.97;;;14.07;100.00
74594;BME280;63097;51.872;4.460;2023-08-06T05:44:09;100784.81;;;14.12;100.00
74594;BME280;63097;51.872;4.460;2023-08-06T05:46:34;100780.06;;;14.08;100.00
74594;BME280;63097;51.872;4.460;2023-08-06T05:48:59;100785.09;;;14.11;100.00
74594;BME280;63097;51.872;4.460;2023-08-06T05:51:26;100786.50;;;14.13;100.00
74594;BME280;63097;51.872;4.460;2023-08-06T05:53:52;100789.00;;;14.15;100.00
74594;BME280;63097;51.872;4.460;2023-08-06T05:56:17;100797.38;;;14.10;100.00
74594;BME280;63097;51.872;4.460;2023-08-06T05:58:42;100793.47;;;14.11;100.00
74594;BME280;63097;51.872;4.460;2023-08-06T06:01:07;100801.59;;;14.12;100.00
74594;BME280;63097;51.872;4.460;2023-08-06T06:03:33;100805.22;;;14.08;100.00
74594;BME280;63097;51.872;4.460;2023-08-06T06:06:01;100806.91;;;14.09;100.00
74594;BME280;63097;51.872;4.460;2023-08-06T06:08:26;100815.00;;;14.10;100.00
74594;BME280;63097;51.872;4.460;2023-08-06T06:10:51;100813.06;;;14.11;100.00
74594;BME280;63097;51.872;4.460;2023-08-06T06:13:17;100814.16;;;14.10;100.00
74594;BME280;63097;51.872;4.460;2023-08-06T06:15:42;100816.41;;;14.08;100.00
74594;BME280;63097;51.872;4.460;2023-08-06T06:18:07;100820.03;;;14.08;100.00
74594;BME280;63097;51.872;4.460;2023-08-06T06:20:33;100823.41;;;14.10;100.00
74594;BME280;63097;51.872;4.460;2023-08-06T06:22:58;100825.34;;;14.10;100.00
74594;BME280;63097;51.872;4.460;2023-08-06T06:25:23;100826.75;;;14.12;100.00
74594;BME280;63097;51.872;4.460;2023-08-06T06:27:49;100826.47;;;14.09;100.00
74594;BME280;63097;51.872;4.460;2023-08-06T06:30:14;100826.47;;;14.09;100.00
74594;BME280;63097;51.872;4.460;2023-08-06T06:32:39;100823.13;;;14.12;100.00
74594;BME280;63097;51.872;4.460;2023-08-06T06:35:05;100823.97;;;14.12;100.00
74594;BME280;63097;51.872;4.460;2023-08-06T06:37:30;100832.94;;;14.14;100.00
74594;BME280;63097;51.872;4.460;2023-08-06T06:39:56;100834.91;;;14.19;100.00
74594;BME280;63097;51.872;4.460;2023-08-06T06:42:21;100834.91;;;14.19;100.00
74594;BME280;63097;51.872;4.460;2023-08-06T06:44:46;100837.72;;;14.24;100.00
74594;BME280;63097;51.872;4.460;2023-08-06T06:47:11;100846.38;;;14.23;100.00
74594;BME280;63097;51.872;4.460;2023-08-06T06:49:37;100853.97;;;14.27;100.00
74594;BME280;63097;51.872;4.460;2023-08-06T06:52:02;100849.22;;;14.28;100.00
74594;BME280;63097;51.872;4.460;2023-08-06T06:54:28;100856.47;;;14.29;100.00
74594;BME280;63097;51.872;4.460;2023-08-06T06:56:53;100859.56;;;14.32;100.00
74594;BME280;63097;51.872;4.460;2023-08-06T06:59:18;100858.19;;;14.35;100.00
74594;BME280;63097;51.872;4.460;2023-08-06T07:01:44;100867.13;;;14.42;100.00
74594;BME280;63097;51.872;4.460;2023-08-06T07:04:09;100873.88;;;14.46;100.00
74594;BME280;63097;51.872;4.460;2023-08-06T07:06:34;100875.28;;;14.48;100.00
74594;BME280;63097;51.872;4.460;2023-08-06T07:09:00;100870.78;;;14.52;100.00
74594;BME280;63097;51.872;4.460;2023-08-06T07:11:25;100868.84;;;14.53;100.00
74594;BME280;63097;51.872;4.460;2023-08-06T07:13:56;100876.97;;;14.64;100.00
74594;BME280;63097;51.872;4.460;2023-08-06T07:16:21;100874.44;;;14.73;100.00
74594;BME280;63097;51.872;4.460;2023-08-06T07:18:47;100883.41;;;14.80;100.00
74594;BME280;63097;51.872;4.460;2023-08-06T07:21:12;100882.88;;;14.88;100.00
74594;BME280;63097;51.872;4.460;2023-08-06T07:23:37;100890.72;;;14.96;100.00
74594;BME280;63097;51.872;4.460;2023-08-06T07:26:03;100887.31;;;15.04;100.00
74594;BME280;63097;51.872;4.460;2023-08-06T07:28:28;100892.94;;;15.14;100.00
74594;BME280;63097;51.872;4.460;2023-08-06T07:30:53;100880.84;;;15.24;100.00
74594;BME280;63097;51.872;4.460;2023-08-06T07:33:19;100883.38;;;15.45;97.53
74594;BME280;63097;51.872;4.460;2023-08-06T07:35:44;100894.25;;;15.67;99.90
74594;BME280;63097;51.872;4.460;2023-08-06T07:38:09;100894.25;;;15.67;95.91
74594;BME280;63097;51.872;4.460;2023-08-06T07:40:38;100890.56;;;15.81;96.60
74594;BME280;63097;51.872;4.460;2023-08-06T07:43:04;100898.06;;;15.96;97.27
74594;BME280;63097;51.872;4.460;2023-08-06T07:45:35;100898.66;;;15.93;96.48
74594;BME280;63097;51.872;4.460;2023-08-06T07:48:01;100897.44;;;16.14;95.78
74594;BME280;63097;51.872;4.460;2023-08-06T07:50:27;100888.09;;;16.29;95.05
74594;BME280;63097;51.872;4.460;2023-08-06T07:52:52;100893.59;;;16.49;90.93
74594;BME280;63097;51.872;4.460;2023-08-06T07:55:17;100901.09;;;16.63;93.62
74594;BME280;63097;51.872;4.460;2023-08-06T07:57:43;100896.81;;;16.71;91.96
74594;BME280;63097;51.872;4.460;2023-08-06T08:00:08;100888.59;;;16.84;90.76
74594;BME280;63097;51.872;4.460;2023-08-06T08:02:33;100890.59;;;16.79;89.40
74594;BME280;63097;51.872;4.460;2023-08-06T08:04:59;100886.88;;;16.83;90.05
74594;BME280;63097;51.872;4.460;2023-08-06T08:07:24;100889.38;;;16.90;87.94
74594;BME280;63097;51.872;4.460;2023-08-06T08:09:49;100893.25;;;16.94;89.26
74594;BME280;63097;51.872;4.460;2023-08-06T08:12:15;100895.25;;;16.93;90.47
74594;BME280;63097;51.872;4.460;2023-08-06T08:14:40;100896.34;;;16.97;87.81
74594;BME280;63097;51.872;4.460;2023-08-06T08:17:05;100897.91;;;17.08;87.08
74594;BME280;63097;51.872;4.460;2023-08-06T08:19:31;100896.97;;;17.23;87.59
74594;BME280;63097;51.872;4.460;2023-08-06T08:21:57;100901.78;;;17.18;87.60
74594;BME280;63097;51.872;4.460;2023-08-06T08:24:22;100900.59;;;17.24;84.76
74594;BME280;63097;51.872;4.460;2023-08-06T08:26:48;100907.84;;;17.30;84.66
74594;BME280;63097;51.872;4.460;2023-08-06T08:29:13;100911.44;;;17.35;88.42
74594;BME280;63097;51.872;4.460;2023-08-06T08:31:38;100898.91;;;17.80;82.70
74594;BME280;63097;51.872;4.460;2023-08-06T08:34:03;100910.69;;;17.82;87.64
74594;BME280;63097;51.872;4.460;2023-08-06T08:36:29;100918.97;;;17.73;80.85
74594;BME280;63097;51.872;4.460;2023-08-06T08:38:54;100915.19;;;17.83;79.10
74594;BME280;63097;51.872;4.460;2023-08-06T08:41:20;100922.22;;;17.85;83.19
74594;BME280;63097;51.872;4.460;2023-08-06T08:43:46;100924.75;;;17.82;82.81
74594;BME280;63097;51.872;4.460;2023-08-06T08:46:13;100913.09;;;17.70;81.68
74594;BME280;63097;51.872;4.460;2023-08-06T08:48:39;100922.63;;;17.74;79.70
74594;BME280;63097;51.872;4.460;2023-08-06T08:51:06;100923.25;;;17.89;80.59
74594;BME280;63097;51.872;4.460;2023-08-06T08:53:31;100923.50;;;17.93;80.80
74594;BME280;63097;51.872;4.460;2023-08-06T08:55:56;100923.47;;;17.74;80.89
74594;BME280;63097;51.872;4.460;2023-08-06T08:58:22;100932.06;;;17.59;79.76
74594;BME280;63097;51.872;4.460;2023-08-06T09:00:47;100940.38;;;17.41;80.67
74594;BME280;63097;51.872;4.460;2023-08-06T09:03:13;100931.59;;;17.76;80.25
74594;BME280;63097;51.872;4.460;2023-08-06T09:05:44;100939.84;;;17.91;80.74
74594;BME280;63097;51.872;4.460;2023-08-06T09:08:11;100936.81;;;18.11;78.18
74594;BME280;63097;51.872;4.460;2023-08-06T09:10:37;100943.53;;;18.34;75.72
74594;BME280;63097;51.872;4.460;2023-08-06T09:13:02;100936.13;;;18.19;78.06
74594;BME280;63097;51.872;4.460;2023-08-06T09:15:28;100947.81;;;18.31;78.90
74594;BME280;63097;51.872;4.460;2023-08-06T09:17:54;100945.34;;;18.48;76.12
74594;BME280;63097;51.872;4.460;2023-08-06T09:20:19;100942.16;;;18.73;74.65
74594;BME280;63097;51.872;4.460;2023-08-06T09:22:45;100946.97;;;18.73;73.83
74594;BME280;63097;51.872;4.460;2023-08-06T09:25:10;100959.13;;;18.50;73.20
74594;BME280;63097;51.872;4.460;2023-08-06T09:27:37;100944.47;;;18.29;71.24
74594;BME280;63097;51.872;4.460;2023-08-06T09:30:03;100950.75;;;18.21;71.81
74594;BME280;63097;51.872;4.460;2023-08-06T09:32:47;100955.47;;;18.02;76.73
74594;BME280;63097;51.872;4.460;2023-08-06T09:35:16;100956.88;;;18.04;73.71
74594;BME280;63097;51.872;4.460;2023-08-06T09:37:42;100956.69;;;18.43;69.17
74594;BME280;63097;51.872;4.460;2023-08-06T09:40:27;100968.28;;;18.79;71.18
74594;BME280;63097;51.872;4.460;2023-08-06T09:42:53;100962.59;;;19.02;67.57
74594;BME280;63097;51.872;4.460;2023-08-06T09:45:18;100972.41;;;18.86;69.45
74594;BME280;63097;51.872;4.460;2023-08-06T09:47:43;100982.16;;;18.75;68.12
74594;BME280;63097;51.872;4.460;2023-08-06T09:50:19;100976.28;;;19.09;67.51
74594;BME280;63097;51.872;4.460;2023-08-06T09:52:44;100972.91;;;19.26;67.59
74594;BME280;63097;51.872;4.460;2023-08-06T09:55:13;100978.66;;;19.39;66.77
74594;BME280;63097;51.872;4.460;2023-08-06T09:57:42;100982.63;;;19.84;67.21
74594;BME280;63097;51.872;4.460;2023-08-06T10:00:09;100987.88;;;19.45;66.57
74594;BME280;63097;51.872;4.460;2023-08-06T10:02:37;100990.38;;;19.46;67.14
74594;BME280;63097;51.872;4.460;2023-08-06T10:05:02;100994.94;;;19.24;69.13
74594;BME280;63097;51.872;4.460;2023-08-06T10:07:29;100994.53;;;19.35;65.91
74594;BME280;63097;51.872;4.460;2023-08-06T10:09:55;100995.81;;;19.05;67.46
74594;BME280;63097;51.872;4.460;2023-08-06T10:12:21;100989.50;;;19.14;68.63
74594;BME280;63097;51.872;4.460;2023-08-06T10:14:48;101000.97;;;18.80;65.83
74594;BME280;63097;51.872;4.460;2023-08-06T10:17:14;101006.09;;;18.78;66.15
74594;BME280;63097;51.872;4.460;2023-08-06T10:19:40;100998.50;;;18.97;66.13
74594;BME280;63097;51.872;4.460;2023-08-06T10:22:16;100995.50;;;18.88;67.07
74594;BME280;63097;51.872;4.460;2023-08-06T10:24:53;101001.69;;;19.09;66.43
74594;BME280;63097;51.872;4.460;2023-08-06T10:29:55;101003.34;;;19.10;63.65
74594;BME280;63097;51.872;4.460;2023-08-06T10:32:20;101006.78;;;19.07;65.21
74594;BME280;63097;51.872;4.460;2023-08-06T10:34:58;100997.63;;;18.96;66.97
74594;BME280;63097;51.872;4.460;2023-08-06T10:37:29;101011.72;;;18.78;67.86
74594;BME280;63097;51.872;4.460;2023-08-06T10:39:59;100989.84;;;19.07;63.72
74594;BME280;63097;51.872;4.460;2023-08-06T10:42:29;101004.47;;;19.28;66.02
74594;BME280;63097;51.872;4.460;2023-08-06T10:45:14;101005.06;;;19.25;65.68
74594;BME280;63097;51.872;4.460;2023-08-06T10:47:39;101009.59;;;19.07;64.70
74594;BME280;63097;51.872;4.460;2023-08-06T10:50:07;101015.63;;;19.19;65.26
74594;BME280;63097;51.872;4.460;2023-08-06T10:52:33;101015.16;;;19.31;64.27
74594;BME280;63097;51.872;4.460;2023-08-06T10:54:58;101017.97;;;19.81;63.77
74594;BME280;63097;51.872;4.460;2023-08-06T10:57:24;101041.69;;;19.80;65.92
74594;BME280;63097;51.872;4.460;2023-08-06T10:59:49;101030.63;;;19.15;69.39
74594;BME280;63097;51.872;4.460;2023-08-06T11:02:14;101029.31;;;18.46;78.54
74594;BME280;63097;51.872;4.460;2023-08-06T11:04:40;101027.28;;;18.52;79.33
74594;BME280;63097;51.872;4.460;2023-08-06T11:07:06;101026.59;;;19.02;78.41
74594;BME280;63097;51.872;4.460;2023-08-06T11:09:32;101031.00;;;19.27;74.56
74594;BME280;63097;51.872;4.460;2023-08-06T11:11:57;101033.66;;;18.81;76.22
74594;BME280;63097;51.872;4.460;2023-08-06T11:14:22;101034.31;;;18.54;74.93
74594;BME280;63097;51.872;4.460;2023-08-06T11:16:47;101026.50;;;18.46;76.03
74594;BME280;63097;51.872;4.460;2023-08-06T11:19:13;101030.28;;;18.60;74.58
74594;BME280;63097;51.872;4.460;2023-08-06T11:21:39;101037.16;;;19.66;71.96
74594;BME280;63097;51.872;4.460;2023-08-06T11:24:04;101026.50;;;20.90;67.17
74594;BME280;63097;51.872;4.460;2023-08-06T11:26:30;101023.06;;;20.93;64.52
74594;BME280;63097;51.872;4.460;2023-08-06T11:28:55;101023.69;;;20.09;64.98
74594;BME280;63097;51.872;4.460;2023-08-06T11:31:21;101021.31;;;19.51;68.34
74594;BME280;63097;51.872;4.460;2023-08-06T11:33:46;101026.59;;;19.21;69.99
74594;BME280;63097;51.872;4.460;2023-08-06T11:36:12;101019.47;;;19.60;69.62
74594;BME280;63097;51.872;4.460;2023-08-06T11:38:37;101025.41;;;20.37;65.09
74594;BME280;63097;51.872;4.460;2023-08-06T11:41:02;101024.00;;;20.88;63.18
74594;BME280;63097;51.872;4.460;2023-08-06T11:43:30;101020.50;;;21.41;61.70
74594;BME280;63097;51.872;4.460;2023-08-06T11:45:55;101022.84;;;21.39;63.71
74594;BME280;63097;51.872;4.460;2023-08-06T11:48:21;101046.94;;;21.00;62.28
74594;BME280;63097;51.872;4.460;2023-08-06T11:50:46;101026.13;;;20.69;62.87
74594;BME280;63097;51.872;4.460;2023-08-06T11:53:15;101036.78;;;20.86;62.76
74594;BME280;63097;51.872;4.460;2023-08-06T11:55:40;101032.88;;;21.45;60.89
74594;BME280;63097;51.872;4.460;2023-08-06T11:58:06;101038.06;;;20.66;62.62
74594;BME280;63097;51.872;4.460;2023-08-06T12:00:31;101035.88;;;19.58;65.98
74594;BME280;63097;51.872;4.460;2023-08-06T12:02:57;101047.63;;;19.10;70.27
74594;BME280;63097;51.872;4.460;2023-08-06T12:05:23;101039.84;;;19.01;73.19
74594;BME280;63097;51.872;4.460;2023-08-06T12:07:54;101050.16;;;19.11;70.18
74594;BME280;63097;51.872;4.460;2023-08-06T12:10:20;101038.25;;;19.14;69.89
74594;BME280;63097;51.872;4.460;2023-08-06T12:12:46;101044.56;;;18.87;69.71
74594;BME280;63097;51.872;4.460;2023-08-06T12:15:11;101047.97;;;18.84;69.87
74594;BME280;63097;51.872;4.460;2023-08-06T12:17:37;101061.28;;;18.79;69.92
74594;BME280;63097;51.872;4.460;2023-08-06T12:20:03;101057.34;;;18.80;69.34
74594;BME280;63097;51.872;4.460;2023-08-06T12:22:29;101065.09;;;18.69;70.79
74594;BME280;63097;51.872;4.460;2023-08-06T12:24:54;101062.38;;;18.36;69.23
74594;BME280;63097;51.872;4.460;2023-08-06T12:27:19;101066.75;;;18.23;70.32
74594;BME280;63097;51.872;4.460;2023-08-06T12:29:47;101068.00;;;18.36;69.48
74594;BME280;63097;51.872;4.460;2023-08-06T12:32:13;101082.47;;;18.29;69.42
74594;BME280;63097;51.872;4.460;2023-08-06T12:34:39;101077.53;;;18.16;71.03
74594;BME280;63097;51.872;4.460;2023-08-06T12:37:05;101078.56;;;18.25;71.12
74594;BME280;63097;51.872;4.460;2023-08-06T12:39:31;101080.78;;;18.57;70.87
74594;BME280;63097;51.872;4.460;2023-08-06T12:41:56;101074.91;;;18.72;70.07
74594;BME280;63097;51.872;4.460;2023-08-06T12:44:21;101079.41;;;18.96;69.48
74594;BME280;63097;51.872;4.460;2023-08-06T12:46:46;101079.69;;;19.37;67.17
74594;BME280;63097;51.872;4.460;2023-08-06T12:49:12;101077.22;;;19.68;67.43
74594;BME280;63097;51.872;4.460;2023-08-06T12:51:37;101078.56;;;20.21;63.39